createdAt,value
2022-11-16T00:01:41.883Z,9.93
2022-11-16T00:04:11.947Z,10.33
2022-11-16T00:06:40.012Z,9.87
2022-11-16T00:09:22.995Z,9.40
2022-11-16T00:11:56.441Z,9.13
2022-11-16T00:14:26.060Z,9.50
2022-11-16T00:16:52.973Z,9.57
2022-11-16T00:19:20.171Z,9.20
2022-11-16T00:21:47.487Z,9.37
2022-11-16T00:24:17.559Z,9.87
2022-11-16T00:26:45.317Z,9.37
2022-11-16T00:29:23.024Z,9.50
2022-11-16T00:31:50.731Z,9.23
2022-11-16T00:34:18.545Z,9.70
2022-11-16T00:36:46.242Z,9.97
2022-11-16T00:39:15.398Z,9.63
2022-11-16T00:41:43.292Z,9.87
2022-11-16T00:44:11.436Z,9.70
2022-11-16T00:46:38.485Z,9.17
2022-11-16T00:49:06.367Z,8.40
2022-11-16T00:51:34.898Z,9.27
2022-11-16T00:54:03.369Z,9.63
2022-11-16T00:56:32.844Z,8.53
2022-11-16T00:58:59.768Z,9.73
2022-11-16T01:01:26.786Z,9.30
2022-11-16T01:03:54.110Z,9.23
2022-11-16T01:06:23.393Z,9.00
2022-11-16T01:08:50.973Z,9.07
2022-11-16T01:11:37.202Z,8.53
2022-11-16T01:14:08.659Z,8.00
2022-11-16T01:16:36.206Z,8.50
2022-11-16T01:19:04.287Z,7.90
2022-11-16T01:21:31.246Z,8.30
2022-11-16T01:23:58.289Z,8.10
2022-11-16T01:26:25.422Z,8.03
2022-11-16T01:28:53.078Z,8.40
2022-11-16T01:31:20.744Z,7.87
2022-11-16T01:33:49.960Z,8.87
2022-11-16T01:36:21.919Z,8.30
2022-11-16T01:38:49.252Z,8.70
2022-11-16T01:41:25.259Z,8.27
2022-11-16T01:44:02.985Z,7.97
2022-11-16T01:46:43.675Z,7.97
2022-11-16T01:49:20.726Z,7.93
2022-11-16T01:51:55.810Z,7.97
2022-11-16T01:54:24.523Z,7.13
2022-11-16T01:56:57.208Z,7.63
2022-11-16T01:59:50.385Z,7.40
2022-11-16T02:02:20.358Z,7.87
2022-11-16T02:04:49.081Z,8.37
2022-11-16T02:08:22.308Z,7.87
2022-11-16T02:11:28.504Z,7.63
2022-11-16T02:14:31.704Z,7.07
2022-11-16T02:17:32.402Z,7.83
2022-11-16T02:20:27.545Z,7.73
2022-11-16T02:23:16.937Z,6.57
2022-11-16T02:26:17.465Z,7.07
2022-11-16T02:29:08.071Z,7.23
2022-11-16T02:31:49.520Z,7.43
2022-11-16T02:34:19.835Z,6.90
2022-11-16T02:36:50.540Z,7.17
2022-11-16T02:39:20.095Z,7.67
2022-11-16T02:41:49.582Z,7.70
2022-11-16T02:44:39.127Z,7.30
2022-11-16T02:47:13.714Z,8.03
2022-11-16T02:49:48.792Z,7.73
2022-11-16T02:52:18.138Z,7.90
2022-11-16T02:54:45.099Z,7.77
2022-11-16T02:57:38.524Z,7.97
2022-11-16T03:00:08.857Z,8.23
2022-11-16T03:02:51.451Z,8.07
2022-11-16T03:05:47.748Z,7.80
2022-11-16T03:08:34.157Z,6.97
2022-11-16T03:11:26.541Z,7.03
2022-11-16T03:14:00.499Z,8.10
2022-11-16T03:16:34.302Z,6.20
2022-11-16T03:19:06.134Z,6.87
2022-11-16T03:22:09.608Z,7.00
2022-11-16T03:24:38.966Z,6.93
2022-11-16T03:27:29.937Z,7.10
2022-11-16T03:30:08.843Z,6.47
2022-11-16T03:32:46.840Z,7.20
2022-11-16T03:35:26.726Z,5.93
2022-11-16T03:37:58.068Z,6.57
2022-11-16T03:40:29.579Z,6.97
2022-11-16T03:42:59.499Z,7.27
2022-11-16T03:45:27.122Z,7.47
2022-11-16T03:47:54.242Z,7.17
2022-11-16T03:50:23.178Z,8.10
2022-11-16T03:52:51.466Z,7.87
2022-11-16T03:55:18.954Z,7.40
2022-11-16T03:57:45.990Z,8.40
2022-11-16T04:00:14.226Z,8.20
2022-11-16T04:02:41.658Z,7.90
2022-11-16T04:05:32.184Z,7.30
2022-11-16T04:08:17.837Z,7.63
2022-11-16T04:11:03.258Z,8.13
2022-11-16T04:13:52.903Z,8.33
2022-11-16T04:16:39.285Z,7.97
2022-11-16T04:19:27.967Z,8.87
2022-11-16T04:22:26.457Z,8.07
2022-11-16T04:25:03.465Z,8.83
2022-11-16T04:27:49.499Z,7.37
2022-11-16T04:30:17.777Z,8.47
2022-11-16T04:33:03.231Z,8.57
2022-11-16T04:35:48.692Z,8.07
2022-11-16T04:38:15.769Z,8.50
2022-11-16T04:40:42.739Z,8.90
2022-11-16T04:43:12.148Z,9.17
2022-11-16T04:46:00.679Z,8.90
2022-11-16T04:48:35.193Z,8.90
2022-11-16T04:51:03.084Z,9.07
2022-11-16T04:53:30.253Z,8.70
2022-11-16T04:56:20.062Z,8.23
2022-11-16T04:58:47.280Z,9.77
2022-11-16T05:01:15.344Z,9.03
2022-11-16T05:03:43.191Z,10.57
2022-11-16T05:06:10.128Z,9.73
2022-11-16T05:08:37.415Z,10.00
2022-11-16T05:11:05.663Z,9.63
2022-11-16T05:13:33.121Z,10.10
2022-11-16T05:16:01.470Z,10.30
2022-11-16T05:18:28.390Z,10.30
2022-11-16T05:21:01.585Z,10.70
2022-11-16T05:23:55.044Z,10.03
2022-11-16T05:26:24.743Z,10.17
2022-11-16T05:28:53.398Z,10.07
2022-11-16T05:31:20.971Z,9.80
2022-11-16T05:33:48.574Z,9.83
2022-11-16T05:36:19.330Z,10.50
2022-11-16T05:38:46.565Z,9.73
2022-11-16T05:41:14.562Z,10.80
2022-11-16T05:43:42.260Z,10.80
2022-11-16T05:46:15.752Z,10.23
2022-11-16T05:48:43.567Z,9.73
2022-11-16T05:51:10.669Z,10.13
2022-11-16T05:53:39.006Z,9.50
2022-11-16T05:56:07.305Z,10.47
2022-11-16T05:58:37.758Z,10.83
2022-11-16T06:01:05.468Z,9.67
2022-11-16T06:03:33.011Z,10.17
2022-11-16T06:06:00.530Z,10.00
2022-11-16T06:08:30.048Z,10.23
2022-11-16T06:11:05.737Z,10.37
2022-11-16T06:13:35.095Z,10.13
2022-11-16T06:16:03.926Z,10.70
2022-11-16T06:18:32.842Z,9.70
2022-11-16T06:21:00.070Z,10.73
2022-11-16T06:23:26.993Z,10.53
2022-11-16T06:25:55.730Z,10.77
2022-11-16T06:28:25.157Z,10.03
2022-11-16T06:30:52.258Z,10.97
2022-11-16T06:33:19.696Z,11.10
2022-11-16T06:35:47.180Z,10.77
2022-11-16T06:38:19.627Z,11.30
2022-11-16T06:40:54.555Z,11.43
2022-11-16T06:43:24.646Z,11.43
2022-11-16T06:45:56.773Z,10.83
2022-11-16T06:48:24.401Z,11.37
2022-11-16T06:50:52.324Z,10.10
2022-11-16T06:53:27.510Z,10.27
2022-11-16T06:56:02.712Z,10.73
2022-11-16T06:58:32.142Z,9.90
2022-11-16T07:01:10.976Z,10.20
2022-11-16T07:03:40.395Z,10.23
2022-11-16T07:06:11.002Z,9.10
2022-11-16T07:08:40.791Z,10.23
2022-11-16T07:11:10.253Z,8.90
2022-11-16T07:13:39.185Z,11.47
2022-11-16T07:16:09.921Z,9.17
2022-11-16T07:18:41.534Z,10.33
2022-11-16T07:21:15.410Z,10.03
2022-11-16T07:23:43.949Z,9.33
2022-11-16T07:26:15.189Z,8.73
2022-11-16T07:28:53.342Z,9.23
2022-11-16T07:31:22.438Z,9.43
2022-11-16T07:34:09.303Z,9.23
2022-11-16T07:36:42.930Z,9.33
2022-11-16T07:39:10.584Z,9.13
2022-11-16T07:41:39.021Z,9.23
2022-11-16T07:44:16.060Z,8.87
2022-11-16T07:46:47.853Z,9.67
2022-11-16T07:49:18.663Z,9.43
2022-11-16T07:51:55.368Z,9.87
2022-11-16T07:54:44.925Z,9.30
2022-11-16T07:57:13.345Z,9.30
2022-11-16T07:59:41.669Z,8.60
2022-11-16T08:02:12.414Z,9.50
2022-11-16T08:04:41.301Z,9.57
2022-11-16T08:07:09.067Z,9.00
2022-11-16T08:09:43.540Z,9.37
2022-11-16T08:12:13.846Z,9.10
2022-11-16T08:14:40.806Z,8.73
2022-11-16T08:17:08.467Z,9.27
2022-11-16T08:19:36.686Z,17.60
2022-11-16T08:22:04.115Z,64.53
2022-11-16T08:24:33.658Z,58.90
2022-11-16T08:27:00.595Z,62.93
2022-11-16T08:29:27.760Z,61.03
2022-11-16T08:31:57.312Z,62.50
2022-11-16T08:34:24.563Z,59.33
2022-11-16T13:20:36.609Z,3.23
2022-11-16T13:23:18.827Z,2.90
2022-11-16T13:26:10.279Z,3.73
2022-11-16T13:28:47.800Z,4.10
2022-11-16T13:31:38.404Z,3.80
2022-11-16T13:34:14.538Z,3.70
2022-11-16T13:36:46.371Z,5.00
2022-11-16T13:39:22.314Z,4.00
2022-11-16T13:42:05.615Z,4.60
2022-11-16T13:44:33.356Z,5.43
2022-11-16T13:47:04.931Z,4.97
2022-11-16T13:49:38.704Z,5.40
2022-11-16T13:52:35.436Z,4.00
2022-11-16T13:54:59.205Z,5.07
2022-11-16T13:57:34.548Z,4.23
2022-11-16T14:00:01.496Z,4.53
2022-11-16T14:02:42.348Z,5.43
2022-11-16T14:05:17.612Z,4.93
2022-11-16T14:07:49.624Z,6.53
2022-11-16T14:10:48.889Z,5.40
2022-11-16T14:13:39.541Z,5.93
2022-11-16T14:16:19.425Z,5.53
2022-11-16T14:18:55.422Z,5.93
2022-11-16T14:21:56.738Z,6.00
2022-11-16T14:24:39.904Z,5.63
2022-11-16T14:27:30.850Z,6.80
2022-11-16T14:30:23.844Z,6.07
2022-11-16T14:32:53.595Z,6.27
2022-11-16T14:35:40.274Z,6.00
2022-11-16T14:38:23.771Z,5.20
2022-11-16T14:40:58.961Z,5.83
2022-11-16T14:43:43.626Z,5.60
2022-11-16T14:46:26.488Z,5.63
2022-11-16T14:48:57.139Z,5.97
2022-11-16T14:51:31.282Z,6.30
2022-11-16T14:54:03.930Z,5.93
2022-11-16T14:56:30.834Z,6.10
2022-11-16T14:59:01.338Z,5.30
2022-11-16T15:01:33.068Z,5.20
2022-11-16T15:04:12.207Z,4.90
2022-11-16T15:06:48.943Z,5.03
2022-11-16T15:09:38.716Z,4.50
2022-11-16T15:12:32.180Z,4.30
2022-11-16T15:15:08.026Z,4.13
2022-11-16T15:17:35.477Z,3.60
2022-11-16T15:20:22.203Z,4.33
2022-11-16T15:22:53.339Z,4.70
2022-11-16T15:25:33.211Z,3.90
2022-11-16T15:28:05.226Z,3.43
2022-11-16T15:30:37.031Z,3.80
2022-11-16T15:33:16.091Z,4.40
2022-11-16T15:35:43.049Z,4.03
2022-11-16T15:38:24.259Z,4.20
2022-11-16T15:41:00.546Z,5.37
2022-11-16T15:43:38.237Z,4.17
2022-11-16T15:46:14.036Z,3.83
2022-11-16T15:48:41.425Z,3.37
2022-11-16T15:51:16.821Z,3.40
2022-11-16T15:53:49.841Z,3.77
2022-11-16T15:56:25.831Z,3.23
2022-11-16T15:58:55.157Z,4.13
2022-11-16T16:01:22.935Z,3.83
2022-11-16T16:04:01.887Z,4.20
2022-11-16T16:06:55.593Z,4.10
2022-11-16T16:09:38.794Z,4.50
2022-11-16T16:12:28.090Z,4.30
2022-11-16T16:15:36.667Z,4.77
2022-11-16T16:18:14.274Z,4.90
2022-11-16T16:20:47.704Z,5.00
2022-11-16T16:23:20.668Z,4.40
2022-11-16T16:25:50.586Z,4.87
2022-11-16T16:28:17.752Z,4.80
2022-11-16T16:30:44.764Z,4.33
2022-11-16T16:33:21.964Z,4.33
2022-11-16T16:35:50.972Z,4.37
2022-11-16T16:38:17.890Z,4.97
2022-11-16T16:43:56.470Z,4.23
2022-11-16T16:46:23.404Z,4.60
2022-11-16T16:48:50.286Z,4.40
2022-11-16T16:51:17.159Z,3.90
2022-11-16T16:53:44.041Z,4.27
2022-11-16T16:56:16.774Z,3.70
2022-11-16T16:58:43.664Z,4.47
2022-11-16T17:01:11.585Z,3.37
2022-11-16T17:03:38.491Z,4.43
2022-11-16T17:06:05.677Z,4.37
2022-11-16T17:08:37.202Z,4.53
2022-11-16T17:11:04.847Z,3.67
2022-11-16T17:13:32.009Z,4.10
2022-11-16T17:15:59.067Z,4.23
2022-11-16T17:18:26.714Z,4.60
2022-11-16T17:20:53.571Z,3.90
2022-11-16T17:23:20.496Z,3.03
2022-11-16T17:25:47.391Z,4.53
2022-11-16T17:28:14.276Z,3.20
2022-11-16T17:30:41.198Z,3.90
2022-11-16T17:33:08.093Z,3.43
2022-11-16T17:35:34.980Z,3.37
2022-11-16T17:38:02.002Z,3.50
2022-11-16T17:40:28.865Z,4.60
2022-11-16T17:42:56.525Z,5.10
2022-11-16T17:45:23.487Z,3.70
2022-11-16T17:47:50.431Z,5.33
2022-11-16T17:50:17.419Z,3.30
2022-11-16T17:52:44.388Z,4.53
2022-11-16T17:55:11.325Z,3.23
2022-11-16T17:57:38.229Z,3.47
2022-11-16T18:00:06.423Z,3.23
2022-11-16T18:02:33.345Z,3.50
2022-11-16T18:05:00.253Z,3.87
2022-11-16T18:07:27.415Z,4.33
2022-11-16T18:09:54.654Z,6.03
2022-11-16T18:12:21.562Z,4.23
2022-11-16T18:15:13.617Z,4.83
2022-11-16T18:17:36.284Z,4.20
2022-11-16T18:20:04.838Z,3.60
2022-11-16T18:22:31.754Z,3.50
2022-11-16T18:24:58.752Z,4.70
2022-11-16T18:27:25.985Z,3.73
2022-11-16T18:29:52.930Z,4.23
2022-11-16T18:32:20.085Z,4.13
2022-11-16T18:34:47.045Z,4.40
2022-11-16T18:37:13.965Z,4.53
2022-11-16T18:39:40.832Z,5.40
2022-11-16T18:42:07.914Z,5.83
2022-11-16T18:44:34.814Z,4.20
2022-11-16T18:47:03.077Z,5.00
2022-11-16T18:49:30.115Z,4.60
2022-11-16T18:51:57.291Z,5.40
2022-11-16T18:54:24.166Z,3.43
2022-11-16T18:56:51.054Z,4.80
2022-11-16T18:59:18.059Z,4.67
2022-11-16T19:01:44.963Z,3.70
2022-11-16T19:04:11.893Z,3.77
2022-11-16T19:06:38.797Z,3.70
2022-11-16T19:09:09.576Z,3.80
2022-11-16T19:11:36.521Z,3.73
2022-11-16T19:14:07.855Z,5.03
2022-11-16T19:16:35.781Z,3.60
2022-11-16T19:19:03.060Z,4.73
2022-11-16T19:21:30.604Z,3.57
2022-11-16T19:23:58.186Z,6.10
2022-11-16T19:26:27.403Z,5.90
2022-11-16T19:28:55.022Z,6.30
2022-11-16T19:31:24.620Z,4.80
2022-11-16T19:34:06.667Z,4.30
2022-11-16T19:36:36.049Z,4.37
2022-11-16T19:39:03.413Z,5.53
2022-11-16T19:41:30.338Z,4.13
2022-11-16T19:43:59.913Z,5.67
2022-11-16T19:46:30.557Z,4.00
2022-11-16T19:48:58.177Z,5.07
2022-11-16T19:51:28.437Z,4.33
2022-11-16T19:53:55.997Z,6.27
2022-11-16T19:56:23.938Z,4.13
2022-11-16T19:58:51.214Z,4.80
2022-11-16T20:01:26.109Z,6.13
2022-11-16T20:03:53.489Z,6.50
2022-11-16T20:06:29.267Z,6.67
2022-11-16T20:09:00.726Z,7.53
2022-11-16T20:11:30.343Z,4.93
2022-11-16T20:13:58.315Z,5.67
2022-11-16T20:16:31.692Z,5.30
2022-11-16T20:19:02.625Z,6.20
2022-11-16T20:21:34.285Z,5.30
2022-11-16T20:24:06.420Z,6.67
2022-11-16T20:26:35.915Z,5.33
2022-11-16T20:29:04.418Z,6.03
2022-11-16T20:31:33.149Z,5.50
2022-11-16T20:34:03.523Z,5.90
2022-11-16T20:36:32.213Z,5.97
2022-11-16T20:39:00.730Z,5.93
2022-11-16T20:41:32.912Z,5.47
2022-11-16T20:44:01.822Z,6.03
2022-11-16T20:46:33.506Z,5.57
2022-11-16T20:49:03.853Z,6.60
2022-11-16T20:51:31.049Z,6.90
2022-11-16T20:53:58.496Z,5.93
2022-11-16T20:56:27.115Z,6.17
2022-11-16T20:58:54.159Z,6.57
2022-11-16T21:01:31.575Z,6.87
2022-11-16T21:04:02.440Z,6.47
2022-11-16T21:06:30.177Z,5.93
2022-11-16T21:08:57.430Z,7.17
2022-11-16T21:11:28.993Z,6.87
2022-11-16T21:14:14.953Z,6.60
2022-11-16T21:16:42.133Z,6.73
2022-11-16T21:19:09.436Z,7.43
2022-11-16T21:21:38.103Z,7.13
2022-11-16T21:24:05.182Z,7.50
2022-11-16T21:26:33.558Z,6.50
2022-11-16T21:29:01.892Z,7.23
2022-11-16T21:31:32.753Z,6.00
2022-11-16T21:34:00.985Z,6.87
2022-11-16T21:36:30.501Z,7.07
2022-11-16T21:38:58.160Z,7.67
2022-11-16T21:41:25.694Z,7.10
2022-11-16T21:43:52.954Z,7.40
2022-11-16T21:46:22.996Z,8.83
2022-11-16T21:48:51.281Z,7.60
2022-11-16T21:51:20.206Z,8.60
2022-11-16T21:53:47.480Z,7.83
2022-11-16T21:56:20.402Z,7.80
2022-11-16T21:58:49.862Z,7.57
2022-11-16T22:01:17.060Z,8.03
2022-11-16T22:03:44.836Z,7.23
2022-11-16T22:06:34.792Z,6.90
2022-11-16T22:09:01.832Z,6.23
2022-11-16T22:11:28.778Z,7.10
2022-11-16T22:13:55.695Z,7.20
2022-11-16T22:16:23.746Z,7.30
2022-11-16T22:18:50.868Z,6.70
2022-11-16T22:21:18.090Z,7.10
2022-11-16T22:23:45.065Z,6.10
2022-11-16T22:26:13.941Z,5.87
2022-11-16T22:28:41.425Z,5.60
2022-11-16T22:31:14.766Z,4.83
2022-11-16T22:33:42.425Z,5.33
2022-11-16T22:36:10.848Z,5.13
2022-11-16T22:38:38.022Z,4.97
2022-11-16T22:41:05.094Z,5.30
2022-11-16T22:43:32.874Z,4.53
2022-11-16T22:46:03.003Z,4.53
2022-11-16T22:48:36.082Z,5.83
2022-11-16T22:51:30.199Z,4.83
2022-11-16T22:54:02.911Z,5.40
2022-11-16T22:56:32.117Z,5.57
2022-11-16T22:59:00.664Z,4.67
2022-11-16T23:01:27.747Z,6.60
2022-11-16T23:03:54.686Z,4.50
2022-11-16T23:06:21.632Z,5.40
2022-11-16T23:08:48.884Z,4.07
2022-11-16T23:11:38.147Z,4.90
2022-11-16T23:14:25.405Z,4.20
2022-11-16T23:16:52.813Z,4.03
2022-11-16T23:19:40.127Z,4.87
2022-11-16T23:22:31.553Z,4.27
2022-11-16T23:25:30.455Z,4.17
2022-11-16T23:28:07.128Z,4.50
2022-11-16T23:30:35.384Z,5.10
2022-11-16T23:33:03.372Z,4.67
2022-11-16T23:35:30.251Z,5.17
2022-11-16T23:37:59.874Z,3.70
2022-11-16T23:40:33.360Z,4.87
2022-11-16T23:43:33.248Z,4.03
2022-11-16T23:46:00.331Z,4.03
2022-11-16T23:48:27.311Z,5.03
2022-11-16T23:50:54.168Z,3.77
2022-11-16T23:53:21.069Z,4.33
2022-11-16T23:55:47.951Z,3.80
2022-11-16T23:58:15.486Z,4.27
